Time;durP1;ratioP1;P1;durP2;ratioP2;P2;SDS_P1;SDS_P2;PMS_P1;PMS_P2;Temp;Humidity;BMP_temperature;BMP_pressure;BME280_temperature;BME280_humidity;BME280_pressure;Samples;Min_cycle;Max_cycle;Signal;HPM_P1;HPM_P2
2023/01/01 00:00:21;;;;;;;;;;;5.30;99.90;;;;;;5034341;28;19909;-78
2023/01/01 00:02:48;;;;;;;;;;;5.20;99.90;;;;;;5033671;28;19944;-77
2023/01/01 00:05:16;;;;;;;;;;;7.40;99.90;;;;;;5032588;28;19901;-78
2023/01/01 00:07:44;;;;;;;;;;;3.10;99.90;;;;;;5014792;28;19912;-78
2023/01/01 00:12:55;;;;;;;;;;;5.10;99.90;;;;;;5033636;28;20016;-78
2023/01/01 00:15:24;;;;;;;;;;;5.20;99.90;;;;;;5034624;28;19944;-77
2023/01/01 00:17:53;;;;;;;;;;;2.70;99.90;;;;;;5014504;28;19912;-78
2023/01/01 00:20:19;;;;;;;;;;;5.20;99.90;;;;;;5011800;28;19913;-77
2023/01/01 00:22:45;;;;;;;;;;;5.10;99.90;;;;;;5013611;28;19927;-78
2023/01/01 00:25:14;;;;;;;;;;;5.10;99.90;;;;;;5030839;28;19905;-78
2023/01/01 00:27:40;;;;;;;;;;;5.10;99.90;;;;;;5030521;28;19912;-77
2023/01/01 00:30:08;;;;;;;;;;;5.10;99.90;;;;;;5030575;28;19996;-78
2023/01/01 00:32:34;;;;;;;;;;;4.30;99.90;;;;;;5014336;28;19953;-77
2023/01/01 00:35:01;;;;;;;;;;;5.10;99.90;;;;;;5030646;28;19932;-77
2023/01/01 00:37:30;;;;;;;;;;;5.10;99.90;;;;;;5031008;28;19905;-79
2023/01/01 00:39:56;;;;;;;;;;;5.10;99.90;;;;;;5029804;28;19940;-78
2023/01/01 00:42:25;;;;;;;;;;;5.20;99.90;;;;;;5013221;28;19913;-77
2023/01/01 00:44:51;;;;;;;;;;;5.10;99.90;;;;;;5012478;28;20524;-77
2023/01/01 00:47:17;;;;;;;;;;;5.10;99.90;;;;;;5010912;28;19908;-78
2023/01/01 00:49:42;;;;;;;;;;;3.90;99.90;;;;;;5029339;28;20027;-78
2023/01/01 00:52:08;;;;;;;;;;;5.00;99.90;;;;;;5009926;28;19901;-78
2023/01/01 00:54:34;;;;;;;;;;;5.00;99.90;;;;;;5009562;28;19984;-77
2023/01/01 00:56:59;;;;;;;;;;;5.00;99.90;;;;;;5009557;28;20061;-77
2023/01/01 00:59:25;;;;;;;;;;;5.50;99.90;;;;;;5043131;28;19909;-77
2023/01/01 01:01:53;;;;;;;;;;;5.10;99.90;;;;;;5028026;28;20079;-79
2023/01/01 01:04:19;;;;;;;;;;;5.10;99.90;;;;;;5028188;28;19905;-82
2023/01/01 01:06:54;;;;;;;;;;;5.00;99.90;;;;;;5028630;28;19973;-79
2023/01/01 01:09:21;;;;;;;;;;;5.00;99.90;;;;;;5025892;28;19909;-78
2023/01/01 01:11:50;;;;;;;;;;;3.70;99.90;;;;;;5028086;28;19905;-77
2023/01/01 01:14:15;;;;;;;;;;;5.30;99.90;;;;;;5028460;28;20222;-78
2023/01/01 01:16:42;;;;;;;;;;;4.90;99.90;;;;;;5011499;28;20292;-80
2023/01/01 01:19:13;;;;;;;;;;;4.90;99.90;;;;;;5035768;28;19905;-79
2023/01/01 01:21:39;;;;;;;;;;;4.90;99.90;;;;;;5053350;28;19919;-79
2023/01/01 01:24:06;;;;;;;;;;;4.30;99.90;;;;;;5037632;28;20599;-77
2023/01/01 01:26:35;;;;;;;;;;;4.90;99.90;;;;;;5038278;28;19927;-78
2023/01/01 01:29:01;;;;;;;;;;;4.90;99.90;;;;;;5022645;28;19971;-79
2023/01/01 01:31:28;;;;;;;;;;;4.90;99.90;;;;;;5023786;28;19905;-78
2023/01/01 01:33:56;;;;;;;;;;;4.90;99.90;;;;;;5041295;28;19901;-78
2023/01/01 01:36:23;;;;;;;;;;;5.60;99.90;;;;;;5040200;28;19923;-79
2023/01/01 01:38:49;;;;;;;;;;;4.90;99.90;;;;;;5052570;28;20003;-79
2023/01/01 01:41:17;;;;;;;;;;;4.90;99.90;;;;;;5040533;28;20579;-78
2023/01/01 01:43:44;;;;;;;;;;;4.90;99.90;;;;;;5055197;28;20631;-80
2023/01/01 01:46:13;;;;;;;;;;;4.90;99.90;;;;;;5020089;28;19904;-80
2023/01/01 01:48:46;;;;;;;;;;;5.80;99.90;;;;;;5054048;28;20070;-77
2023/01/01 01:51:15;;;;;;;;;;;4.90;99.90;;;;;;5040315;28;19970;-78
2023/01/01 01:53:48;;;;;;;;;;;4.90;99.90;;;;;;5055404;28;19905;-77
2023/01/01 01:56:16;;;;;;;;;;;4.90;99.90;;;;;;5058359;28;19901;-79
2023/01/01 01:58:43;;;;;;;;;;;3.00;99.90;;;;;;5059008;28;19901;-79
2023/01/01 02:01:09;;;;;;;;;;;4.30;99.90;;;;;;5044413;28;19936;-78
2023/01/01 02:03:42;;;;;;;;;;;4.50;99.90;;;;;;5043684;28;19995;-79
2023/01/01 02:06:09;;;;;;;;;;;4.80;99.90;;;;;;5058182;28;19936;-77
2023/01/01 02:08:35;;;;;;;;;;;4.70;99.90;;;;;;5044972;28;19901;-79
2023/01/01 02:11:00;;;;;;;;;;;4.70;99.90;;;;;;5059336;28;19901;-78
2023/01/01 02:13:26;;;;;;;;;;;4.70;99.90;;;;;;5044006;28;19905;-78
2023/01/01 02:16:32;;;;;;;;;;;4.70;99.90;;;;;;5041425;28;19909;-79
2023/01/01 02:19:00;;;;;;;;;;;4.70;99.90;;;;;;4982569;28;19981;-78
2023/01/01 02:21:30;;;;;;;;;;;5.00;99.90;;;;;;4982227;28;19924;-80
2023/01/01 02:23:56;;;;;;;;;;;3.70;99.90;;;;;;4982672;28;19901;-79
2023/01/01 02:26:25;;;;;;;;;;;4.80;99.90;;;;;;4998677;28;19913;-79
2023/01/01 02:29:02;;;;;;;;;;;4.70;99.90;;;;;;4980399;28;20387;-77
2023/01/01 02:31:35;;;;;;;;;;;4.70;99.90;;;;;;4985480;28;19949;-78
2023/01/01 02:34:04;;;;;;;;;;;4.60;99.90;;;;;;4997603;28;19902;-79
2023/01/01 02:36:32;;;;;;;;;;;4.60;99.90;;;;;;4994523;28;19957;-80
2023/01/01 02:39:03;;;;;;;;;;;5.00;99.90;;;;;;4988315;28;19913;-78
2023/01/01 02:41:51;;;;;;;;;;;4.60;99.90;;;;;;4971535;28;19910;-77
2023/01/01 02:44:18;;;;;;;;;;;3.30;99.90;;;;;;4971942;28;20060;-78
2023/01/01 02:46:45;;;;;;;;;;;4.20;99.90;;;;;;4971191;28;19996;-78
2023/01/01 02:49:11;;;;;;;;;;;5.00;99.90;;;;;;5000444;28;20003;-77
2023/01/01 02:51:50;;;;;;;;;;;4.50;99.90;;;;;;5046764;28;20569;-78
2023/01/01 02:54:16;;;;;;;;;;;4.50;99.90;;;;;;5046834;28;19928;-78
2023/01/01 02:57:11;;;;;;;;;;;4.60;99.90;;;;;;5031902;28;19913;-78
2023/01/01 03:00:23;;;;;;;;;;;4.60;99.90;;;;;;4974740;28;19906;-77
2023/01/01 03:03:08;;;;;;;;;;;4.60;99.90;;;;;;4913952;28;19912;-78
2023/01/01 03:08:53;;;;;;;;;;;4.90;99.90;;;;;;4916651;29;19947;-79
2023/01/01 03:11:20;;;;;;;;;;;4.70;99.90;;;;;;4900014;29;19907;-80
2023/01/01 03:13:47;;;;;;;;;;;5.10;99.90;;;;;;4899637;29;19903;-79
2023/01/01 03:16:33;;;;;;;;;;;4.60;99.90;;;;;;4914261;29;20676;-76
2023/01/01 03:19:11;;;;;;;;;;;4.60;99.90;;;;;;4915643;29;19907;-79
2023/01/01 03:21:42;;;;;;;;;;;4.50;99.90;;;;;;4914753;29;19919;-77
2023/01/01 03:24:11;;;;;;;;;;;4.50;99.90;;;;;;4916889;29;19907;-77
2023/01/01 03:26:37;;;;;;;;;;;4.50;99.90;;;;;;4919196;29;19911;-79
2023/01/01 03:29:04;;;;;;;;;;;1.80;99.90;;;;;;4900929;29;19910;-81
2023/01/01 03:31:31;;;;;;;;;;;4.30;99.90;;;;;;4899318;29;19907;-81
2023/01/01 03:34:05;;;;;;;;;;;4.30;99.90;;;;;;4899176;29;19910;-78
2023/01/01 03:36:34;;;;;;;;;;;4.30;99.90;;;;;;4945443;29;19946;-80
2023/01/01 03:39:11;;;;;;;;;;;4.20;99.90;;;;;;4993545;28;19909;-82
2023/01/01 03:42:04;;;;;;;;;;;4.20;99.90;;;;;;5042842;28;19947;-79
2023/01/01 03:44:31;;;;;;;;;;;4.10;99.90;;;;;;5001024;28;19913;-80
2023/01/01 03:46:57;;;;;;;;;;;4.20;99.90;;;;;;4982551;28;19913;-78
2023/01/01 03:49:28;;;;;;;;;;;4.30;99.90;;;;;;4998338;28;20025;-81
2023/01/01 03:52:00;;;;;;;;;;;4.40;99.90;;;;;;5000712;28;19905;-77
2023/01/01 03:54:32;;;;;;;;;;;4.30;99.90;;;;;;4982890;28;19912;-78
2023/01/01 03:57:06;;;;;;;;;;;4.30;99.90;;;;;;4996146;28;20612;-78
2023/01/01 03:59:41;;;;;;;;;;;4.30;99.90;;;;;;4997159;28;19905;-78
2023/01/01 04:02:10;;;;;;;;;;;4.30;99.90;;;;;;4977498;28;20614;-77
2023/01/01 04:04:38;;;;;;;;;;;4.20;99.90;;;;;;4979685;28;19905;-78
2023/01/01 04:07:09;;;;;;;;;;;3.80;99.90;;;;;;4992993;28;19909;-79
2023/01/01 04:09:38;;;;;;;;;;;7.10;99.90;;;;;;4976024;28;19906;-77
2023/01/01 04:12:04;;;;;;;;;;;4.80;99.90;;;;;;4989964;28;19901;-80
2023/01/01 04:14:33;;;;;;;;;;;4.60;99.90;;;;;;4971164;28;20636;-78
2023/01/01 04:17:03;;;;;;;;;;;4.20;99.90;;;;;;4988797;28;19941;-78
2023/01/01 04:19:30;;;;;;;;;;;4.20;99.90;;;;;;4971967;28;19945;-77
2023/01/01 04:21:56;;;;;;;;;;;4.30;99.90;;;;;;5001019;28;19962;-78
2023/01/01 04:24:22;;;;;;;;;;;4.40;99.90;;;;;;5031994;28;20007;-78
2023/01/01 04:26:49;;;;;;;;;;;4.80;99.90;;;;;;5049354;28;20004;-79
2023/01/01 04:29:16;;;;;;;;;;;2.80;99.90;;;;;;5033461;28;19905;-77
2023/01/01 04:31:41;;;;;;;;;;;1.90;99.90;;;;;;5031264;28;19905;-77
2023/01/01 04:34:07;;;;;;;;;;;4.00;99.90;;;;;;5031607;28;19905;-78
2023/01/01 04:36:37;;;;;;;;;;;4.60;99.90;;;;;;5046107;28;19905;-77
2023/01/01 04:39:10;;;;;;;;;;;3.90;99.90;;;;;;5031854;28;19901;-77
2023/01/01 04:41:37;;;;;;;;;;;3.90;99.90;;;;;;5012948;28;20363;-78
2023/01/01 04:44:03;;;;;;;;;;;3.90;99.90;;;;;;5042731;28;20477;-78
2023/01/01 04:46:30;;;;;;;;;;;3.80;99.90;;;;;;5027129;28;19901;-77
2023/01/01 04:48:56;;;;;;;;;;;4.60;99.90;;;;;;5013945;28;20016;-78
2023/01/01 04:51:21;;;;;;;;;;;3.80;99.90;;;;;;5031568;28;19913;-77
2023/01/01 04:53:51;;;;;;;;;;;3.80;99.90;;;;;;5054525;28;20575;-78
2023/01/01 04:56:23;;;;;;;;;;;3.80;99.90;;;;;;5041167;28;19999;-79
2023/01/01 04:58:49;;;;;;;;;;;3.50;99.90;;;;;;5042188;28;19901;-78
2023/01/01 05:01:25;;;;;;;;;;;3.80;99.90;;;;;;5058056;28;19901;-79
2023/01/01 05:03:51;;;;;;;;;;;3.80;99.90;;;;;;5044651;28;19958;-77
2023/01/01 05:06:20;;;;;;;;;;;3.70;99.90;;;;;;5045305;28;19905;-79
2023/01/01 05:08:47;;;;;;;;;;;3.80;99.90;;;;;;5049190;28;19913;-79
2023/01/01 05:11:34;;;;;;;;;;;5.60;99.90;;;;;;4992743;28;19906;-79
2023/01/01 05:14:00;;;;;;;;;;;3.60;99.90;;;;;;4930132;29;20045;-78
2023/01/01 05:16:32;;;;;;;;;;;3.50;99.90;;;;;;4930169;29;19903;-78
2023/01/01 05:18:58;;;;;;;;;;;3.50;99.90;;;;;;4949362;29;19930;-78
2023/01/01 05:21:25;;;;;;;;;;;3.50;99.90;;;;;;4930655;29;20042;-77
2023/01/01 05:23:55;;;;;;;;;;;3.40;99.90;;;;;;4930534;29;20646;-77
2023/01/01 05:26:22;;;;;;;;;;;2.20;99.90;;;;;;4946526;29;19949;-78
2023/01/01 05:28:48;;;;;;;;;;;3.50;99.90;;;;;;4939258;29;19933;-78
2023/01/01 05:31:15;;;;;;;;;;;3.40;99.90;;;;;;4954992;29;19906;-78
2023/01/01 05:33:44;;;;;;;;;;;3.40;99.90;;;;;;4953689;29;19907;-79
2023/01/01 05:36:13;;;;;;;;;;;3.40;99.90;;;;;;4936682;29;20005;-77
2023/01/01 05:38:40;;;;;;;;;;;3.50;99.90;;;;;;4938800;29;19942;-78
2023/01/01 05:41:14;;;;;;;;;;;2.60;99.90;;;;;;4937374;29;19918;-78
2023/01/01 05:43:45;;;;;;;;;;;3.50;99.90;;;;;;4955340;29;19913;-80
2023/01/01 05:46:18;;;;;;;;;;;3.80;99.90;;;;;;4954985;28;20187;-79
2023/01/01 05:48:46;;;;;;;;;;;3.60;99.90;;;;;;4957096;29;20081;-81
2023/01/01 05:51:13;;;;;;;;;;;3.60;99.90;;;;;;4998415;28;20526;-76
2023/01/01 05:53:44;;;;;;;;;;;2.80;99.90;;;;;;5023237;28;19909;-78
2023/01/01 05:56:12;;;;;;;;;;;1.50;99.90;;;;;;5038169;28;19909;-81
2023/01/01 05:58:38;;;;;;;;;;;3.50;99.90;;;;;;5037366;28;19912;-80
2023/01/01 06:01:09;;;;;;;;;;;3.80;99.90;;;;;;5016888;28;20303;-79
2023/01/01 06:03:36;;;;;;;;;;;3.50;99.90;;;;;;5016587;28;19909;-80
2023/01/01 06:06:12;;;;;;;;;;;4.40;99.90;;;;;;5018182;28;19901;-78
2023/01/01 06:08:42;;;;;;;;;;;3.40;99.90;;;;;;5035002;28;20015;-80
2023/01/01 06:11:09;;;;;;;;;;;3.30;99.90;;;;;;5023023;28;20053;-79
2023/01/01 06:13:36;;;;;;;;;;;3.40;99.90;;;;;;5043160;28;19901;-80
2023/01/01 06:16:02;;;;;;;;;;;2.40;99.90;;;;;;5042268;28;19901;-80
2023/01/01 06:18:29;;;;;;;;;;;3.30;99.90;;;;;;5003878;28;19948;-78
2023/01/01 06:21:02;;;;;;;;;;;3.30;99.90;;;;;;5039937;28;19916;-77
2023/01/01 06:23:28;;;;;;;;;;;3.40;99.90;;;;;;5040733;28;19905;-77
2023/01/01 06:25:53;;;;;;;;;;;3.60;99.90;;;;;;5023918;28;20553;-78
2023/01/01 06:28:19;;;;;;;;;;;2.40;99.90;;;;;;5040639;28;19911;-78
2023/01/01 06:30:45;;;;;;;;;;;3.60;99.90;;;;;;5038184;28;20528;-78
2023/01/01 06:33:10;;;;;;;;;;;3.40;99.90;;;;;;5020886;28;20015;-78
2023/01/01 06:35:36;;;;;;;;;;;3.50;99.90;;;;;;5039208;28;19901;-82
2023/01/01 06:38:02;;;;;;;;;;;3.60;99.90;;;;;;5019350;28;19944;-78
2023/01/01 06:40:27;;;;;;;;;;;2.50;99.90;;;;;;5041877;28;19979;-77
2023/01/01 06:42:56;;;;;;;;;;;3.90;99.90;;;;;;5023985;28;19905;-77
2023/01/01 06:45:22;;;;;;;;;;;3.50;99.90;;;;;;5042672;28;19905;-78
2023/01/01 06:47:47;;;;;;;;;;;3.30;99.90;;;;;;5024285;28;20002;-79
2023/01/01 06:50:16;;;;;;;;;;;3.40;99.90;;;;;;5022208;28;19959;-78
2023/01/01 06:52:42;;;;;;;;;;;3.40;99.90;;;;;;5043741;28;19959;-78
2023/01/01 06:55:08;;;;;;;;;;;3.40;99.90;;;;;;5041128;28;19909;-78
2023/01/01 06:57:33;;;;;;;;;;;3.40;99.90;;;;;;5023530;28;19905;-78
2023/01/01 07:00:02;;;;;;;;;;;3.40;99.90;;;;;;5039675;28;19905;-78
2023/01/01 07:02:27;;;;;;;;;;;3.40;99.90;;;;;;5020239;28;20006;-78
2023/01/01 07:04:53;;;;;;;;;;;6.40;99.90;;;;;;5021879;28;19909;-77
2023/01/01 07:07:18;;;;;;;;;;;3.40;99.90;;;;;;5042053;28;19909;-78
2023/01/01 07:09:45;;;;;;;;;;;3.10;99.90;;;;;;5037251;28;20524;-78
2023/01/01 07:12:10;;;;;;;;;;;3.40;99.90;;;;;;5035970;28;19972;-76
2023/01/01 07:14:36;;;;;;;;;;;4.20;99.90;;;;;;5035545;28;19954;-77
2023/01/01 07:17:03;;;;;;;;;;;3.40;99.90;;;;;;5033589;28;20383;-79
2023/01/01 07:19:34;;;;;;;;;;;3.40;99.90;;;;;;5036414;28;19948;-78
2023/01/01 07:22:04;;;;;;;;;;;3.40;99.90;;;;;;5035775;28;19921;-78
2023/01/01 07:24:32;;;;;;;;;;;3.40;99.90;;;;;;5033996;28;19905;-78
2023/01/01 07:26:59;;;;;;;;;;;3.50;99.90;;;;;;5035233;28;19917;-78
2023/01/01 07:29:24;;;;;;;;;;;1.70;99.90;;;;;;5014759;28;19911;-78
2023/01/01 07:31:50;;;;;;;;;;;3.60;99.90;;;;;;5032478;28;20504;-76
2023/01/01 07:34:18;;;;;;;;;;;3.60;99.90;;;;;;5032693;28;19901;-78
2023/01/01 07:36:44;;;;;;;;;;;3.60;99.90;;;;;;5030265;28;19917;-78
2023/01/01 07:39:09;;;;;;;;;;;3.60;99.90;;;;;;5030542;28;19909;-76
2023/01/01 07:41:35;;;;;;;;;;;3.60;99.90;;;;;;5030915;28;20011;-78
2023/01/01 07:44:01;;;;;;;;;;;3.60;99.90;;;;;;5014427;28;19909;-79
2023/01/01 07:46:27;;;;;;;;;;;3.60;99.90;;;;;;5015855;28;19916;-77
2023/01/01 07:48:53;;;;;;;;;;;3.70;99.90;;;;;;5032629;28;20181;-77
2023/01/01 07:51:19;;;;;;;;;;;3.80;99.90;;;;;;5012763;28;19916;-78
2023/01/01 07:53:45;;;;;;;;;;;3.70;99.90;;;;;;5031288;28;19913;-78
2023/01/01 07:56:12;;;;;;;;;;;3.80;99.90;;;;;;5012523;28;19909;-78
2023/01/01 07:58:39;;;;;;;;;;;3.80;99.90;;;;;;5016897;28;20000;-78
2023/01/01 08:01:10;;;;;;;;;;;3.90;99.90;;;;;;5031547;28;19917;-76
2023/01/01 08:03:36;;;;;;;;;;;4.20;99.90;;;;;;5034171;28;19956;-79
2023/01/01 08:06:05;;;;;;;;;;;4.00;99.90;;;;;;5036097;28;19901;-78
2023/01/01 08:08:31;;;;;;;;;;;4.10;99.90;;;;;;5018795;28;19996;-78
2023/01/01 08:11:05;;;;;;;;;;;3.00;99.90;;;;;;5019697;28;19951;-78
2023/01/01 08:13:32;;;;;;;;;;;4.10;99.90;;;;;;5024911;28;19901;-78
2023/01/01 08:15:58;;;;;;;;;;;4.10;99.90;;;;;;5043636;28;19944;-78
2023/01/01 08:18:23;;;;;;;;;;;4.30;99.90;;;;;;5027009;28;19901;-77
2023/01/01 08:20:49;;;;;;;;;;;4.30;99.90;;;;;;5043042;28;19909;-78
2023/01/01 08:23:15;;;;;;;;;;;4.40;99.90;;;;;;5026702;28;19901;-78
2023/01/01 08:25:40;;;;;;;;;;;4.50;99.90;;;;;;5042594;28;19933;-78
2023/01/01 08:28:06;;;;;;;;;;;2.00;99.90;;;;;;5038327;28;19901;-79
2023/01/01 08:30:39;;;;;;;;;;;1.40;99.90;;;;;;5018069;28;20295;-78
2023/01/01 08:33:08;;;;;;;;;;;6.40;99.90;;;;;;5039436;28;19995;-76
2023/01/01 08:35:39;;;;;;;;;;;4.80;99.90;;;;;;5037214;28;19905;-77
2023/01/01 08:38:32;;;;;;;;;;;4.80;99.90;;;;;;5038491;28;20433;-82
2023/01/01 08:40:59;;;;;;;;;;;4.70;99.90;;;;;;5042297;28;19947;-76
2023/01/01 08:43:24;;;;;;;;;;;3.20;99.90;;;;;;5022382;28;19901;-77
2023/01/01 08:45:50;;;;;;;;;;;5.00;99.90;;;;;;5023002;28;19912;-79
2023/01/01 08:48:16;;;;;;;;;;;5.70;99.90;;;;;;5022920;28;19951;-78
2023/01/01 08:51:06;;;;;;;;;;;5.20;99.90;;;;;;5015481;28;19991;-78
2023/01/01 08:53:46;;;;;;;;;;;5.30;99.90;;;;;;5028224;28;19901;-79
2023/01/01 08:56:16;;;;;;;;;;;5.50;99.90;;;;;;5015373;28;19912;-79
2023/01/01 08:58:42;;;;;;;;;;;5.60;99.90;;;;;;5033103;28;19920;-77
2023/01/01 09:01:08;;;;;;;;;;;5.70;99.90;;;;;;5013889;28;19923;-77
2023/01/01 09:03:35;;;;;;;;;;;5.80;99.90;;;;;;5009720;28;20160;-77
2023/01/01 09:06:01;;;;;;;;;;;5.90;99.90;;;;;;5025035;28;19996;-77
2023/01/01 09:08:27;;;;;;;;;;;6.00;99.90;;;;;;5006405;28;19913;-76
2023/01/01 09:10:56;;;;;;;;;;;6.10;99.90;;;;;;5024141;28;19928;-77
2023/01/01 09:13:23;;;;;;;;;;;6.20;99.90;;;;;;5022588;28;19916;-78
2023/01/01 09:15:49;;;;;;;;;;;4.20;99.90;;;;;;5005453;28;20403;-76
2023/01/01 09:18:14;;;;;;;;;;;6.50;99.90;;;;;;5008733;28;19941;-76
2023/01/01 09:20:43;;;;;;;;;;;6.70;99.90;;;;;;5004549;28;19913;-75
2023/01/01 09:23:09;;;;;;;;;;;6.50;99.90;;;;;;5005199;28;19901;-79
2023/01/01 09:25:37;;;;;;;;;;;8.10;99.90;;;;;;4995447;28;20431;-77
2023/01/01 09:28:06;;;;;;;;;;;7.20;99.90;;;;;;5016478;28;19901;-78
2023/01/01 09:30:35;;;;;;;;;;;7.00;99.90;;;;;;5037084;28;19982;-76
2023/01/01 09:33:01;;;;;;;;;;;7.20;99.90;;;;;;5024340;28;20560;-76
2023/01/01 09:35:30;;;;;;;;;;;7.30;99.90;;;;;;5022636;28;19909;-75
2023/01/01 09:37:59;;;;;;;;;;;7.40;99.90;;;;;;5022763;28;20413;-79
2023/01/01 09:40:24;;;;;;;;;;;7.60;99.90;;;;;;5014145;28;19961;-76
2023/01/01 09:43:11;;;;;;;;;;;7.70;99.90;;;;;;5004321;28;20007;-77
2023/01/01 09:46:10;;;;;;;;;;;7.90;99.90;;;;;;5004912;28;19912;-78
2023/01/01 09:49:04;;;;;;;;;;;8.10;99.90;;;;;;5003964;28;20003;-76
2023/01/01 09:51:38;;;;;;;;;;;8.60;99.90;;;;;;5004355;28;20600;-76
2023/01/01 09:54:22;;;;;;;;;;;8.70;99.90;;;;;;5021264;28;19963;-77
2023/01/01 09:56:50;;;;;;;;;;;6.60;99.90;;;;;;5022165;28;19905;-80
2023/01/01 09:59:16;;;;;;;;;;;8.10;99.90;;;;;;4998485;28;20004;-78
2023/01/01 10:02:13;;;;;;;;;;;8.40;99.90;;;;;;5027848;28;20570;-78
2023/01/01 10:04:54;;;;;;;;;;;8.60;99.90;;;;;;5026505;28;19916;-78
2023/01/01 10:07:32;;;;;;;;;;;9.50;99.90;;;;;;5026248;28;19909;-79
2023/01/01 10:10:33;;;;;;;;;;;9.00;99.90;;;;;;5011864;28;20615;-78
2023/01/01 10:13:07;;;;;;;;;;;9.20;99.90;;;;;;4951812;28;20001;-79
2023/01/01 10:15:36;;;;;;;;;;;10.60;99.90;;;;;;4939050;29;19906;-79
2023/01/01 10:18:05;;;;;;;;;;;9.50;99.90;;;;;;4943597;29;19930;-77
2023/01/01 10:20:35;;;;;;;;;;;9.70;99.90;;;;;;4952974;29;19926;-77
2023/01/01 10:23:15;;;;;;;;;;;9.70;99.90;;;;;;4950191;29;19920;-76
2023/01/01 10:25:44;;;;;;;;;;;9.80;99.90;;;;;;4944104;29;19906;-77
2023/01/01 10:28:12;;;;;;;;;;;9.80;99.90;;;;;;4944235;29;19937;-75
2023/01/01 10:30:41;;;;;;;;;;;9.90;99.90;;;;;;4959202;28;19913;-77
2023/01/01 10:33:13;;;;;;;;;;;10.00;99.90;;;;;;4953484;28;19945;-76
2023/01/01 10:35:45;;;;;;;;;;;9.80;99.90;;;;;;4971341;28;19910;-76
2023/01/01 10:38:21;;;;;;;;;;;10.40;99.90;;;;;;4954212;28;20025;-78
2023/01/01 10:40:52;;;;;;;;;;;10.60;99.90;;;;;;4979410;28;19913;-80
2023/01/01 10:43:17;;;;;;;;;;;10.50;99.90;;;;;;4980016;28;19912;-80
2023/01/01 10:45:44;;;;;;;;;;;8.20;99.90;;;;;;4990523;28;19924;-77
2023/01/01 10:48:15;;;;;;;;;;;10.80;99.90;;;;;;4988904;28;19905;-79
2023/01/01 10:50:48;;;;;;;;;;;10.40;99.90;;;;;;5006103;28;19917;-78
2023/01/01 10:53:33;;;;;;;;;;;10.50;99.90;;;;;;4990446;28;20003;-78
2023/01/01 10:56:10;;;;;;;;;;;10.70;99.90;;;;;;4993453;28;19964;-79
2023/01/01 10:59:06;;;;;;;;;;;10.70;99.90;;;;;;4994671;28;20000;-79
2023/01/01 11:01:33;;;;;;;;;;;11.30;99.90;;;;;;4997271;28;19977;-81
2023/01/01 11:04:03;;;;;;;;;;;13.90;99.90;;;;;;5015372;28;20422;-78
2023/01/01 11:06:38;;;;;;;;;;;10.90;99.90;;;;;;5029736;28;20074;-78
2023/01/01 11:09:08;;;;;;;;;;;11.00;99.90;;;;;;5004845;28;19912;-78
2023/01/01 11:11:40;;;;;;;;;;;11.00;99.90;;;;;;5039792;28;19905;-77
2023/01/01 11:14:35;;;;;;;;;;;11.10;99.90;;;;;;5038510;28;20503;-78
2023/01/01 11:17:05;;;;;;;;;;;10.50;99.90;;;;;;5029049;28;19905;-79
2023/01/01 11:19:40;;;;;;;;;;;11.20;99.90;;;;;;5001002;28;19967;-79
2023/01/01 11:22:06;;;;;;;;;;;11.20;99.90;;;;;;5008658;28;19963;-77
2023/01/01 11:30:35;;;;;;;;;;;13.40;99.90;;;;;;4966714;28;19909;-77
2023/01/01 11:33:01;;;;;;;;;;;12.00;99.90;;;;;;4936862;28;19977;-77
2023/01/01 11:35:36;;;;;;;;;;;10.10;99.90;;;;;;4962476;28;20640;-77
2023/01/01 11:38:02;;;;;;;;;;;11.00;99.90;;;;;;4959309;28;20467;-77
2023/01/01 11:40:31;;;;;;;;;;;13.80;99.90;;;;;;4963087;28;19952;-78
2023/01/01 11:42:58;;;;;;;;;;;10.70;99.90;;;;;;4945096;28;19941;-87
2023/01/01 11:45:26;;;;;;;;;;;12.80;99.90;;;;;;4961513;28;20681;-80
2023/01/01 11:47:55;;;;;;;;;;;13.00;99.90;;;;;;4946245;28;20526;-81
2023/01/01 11:50:23;;;;;;;;;;;13.10;99.90;;;;;;4962122;28;19918;-84
2023/01/01 11:52:52;;;;;;;;;;;13.20;99.90;;;;;;4963132;28;19910;-81
2023/01/01 11:55:21;;;;;;;;;;;15.80;99.90;;;;;;4963853;28;19906;-89
2023/01/01 11:57:53;;;;;;;;;;;13.30;99.90;;;;;;4946980;28;19906;-82
2023/01/01 12:00:19;;;;;;;;;;;13.50;99.90;;;;;;4965426;28;20434;-83
2023/01/01 12:02:56;;;;;;;;;;;12.70;99.90;;;;;;4961282;28;19949;-80
2023/01/01 12:05:25;;;;;;;;;;;13.40;99.90;;;;;;4961685;28;20016;-87
2023/01/01 12:07:52;;;;;;;;;;;14.20;99.90;;;;;;4989214;28;19905;-80
2023/01/01 12:10:18;;;;;;;;;;;14.30;99.90;;;;;;4987595;28;20556;-87
2023/01/01 12:12:58;;;;;;;;;;;13.70;99.90;;;;;;4987389;28;19924;-82
2023/01/01 12:15:35;;;;;;;;;;;12.50;99.90;;;;;;4985848;28;19991;-84
2023/01/01 12:18:14;;;;;;;;;;;13.80;99.90;;;;;;5002089;28;19917;-82
2023/01/01 12:20:44;;;;;;;;;;;13.90;99.90;;;;;;5002135;28;20017;-82
2023/01/01 12:23:10;;;;;;;;;;;14.10;99.90;;;;;;4979326;28;20887;-85
2023/01/01 12:25:40;;;;;;;;;;;14.60;99.90;;;;;;4979213;28;19906;-80
2023/01/01 12:28:09;;;;;;;;;;;14.70;99.90;;;;;;4963573;28;19905;-79
2023/01/01 12:30:59;;;;;;;;;;;14.90;99.90;;;;;;4994260;28;19968;-82
2023/01/01 12:33:42;;;;;;;;;;;14.80;99.90;;;;;;4996781;28;20557;-84
2023/01/01 12:36:37;;;;;;;;;;;15.00;99.90;;;;;;4981248;28;19913;-77
2023/01/01 12:39:29;;;;;;;;;;;16.10;99.90;;;;;;4942685;28;19976;-87
2023/01/01 12:45:03;;;;;;;;;;;14.90;99.90;;;;;;4919843;29;19907;-83
2023/01/01 12:48:05;;;;;;;;;;;15.10;99.90;;;;;;4931518;28;19909;-83
2023/01/01 12:50:39;;;;;;;;;;;15.10;99.90;;;;;;4928968;29;20566;-92
2023/01/01 12:53:16;;;;;;;;;;;14.90;99.90;;;;;;4925733;29;20085;-85
2023/01/01 12:56:05;;;;;;;;;;;15.10;99.90;;;;;;4926175;29;20116;-77
2023/01/01 12:58:33;;;;;;;;;;;15.20;99.90;;;;;;4923226;29;19942;-84
2023/01/01 13:01:03;;;;;;;;;;;15.10;99.90;;;;;;4895521;29;20010;-78
2023/01/01 13:03:35;;;;;;;;;;;15.10;99.90;;;;;;4885856;29;19923;-85
2023/01/01 13:06:02;;;;;;;;;;;15.00;99.90;;;;;;4884639;29;20041;-79
2023/01/01 13:08:27;;;;;;;;;;;14.90;99.90;;;;;;4921612;28;19922;-81
2023/01/01 13:10:55;;;;;;;;;;;15.30;99.90;;;;;;4922029;29;19914;-80
2023/01/01 13:13:24;;;;;;;;;;;14.70;99.90;;;;;;4930722;29;19902;-76
2023/01/01 13:15:59;;;;;;;;;;;14.60;99.90;;;;;;4967918;28;19963;-78
2023/01/01 13:18:37;;;;;;;;;;;14.60;99.90;;;;;;5000383;28;19906;-79
2023/01/01 13:21:17;;;;;;;;;;;11.20;99.90;;;;;;4970804;28;20558;-86
2023/01/01 13:23:43;;;;;;;;;;;14.80;99.90;;;;;;4965558;28;19910;-81
2023/01/01 13:26:21;;;;;;;;;;;14.50;99.90;;;;;;4964563;28;20580;-76
2023/01/01 13:28:56;;;;;;;;;;;14.30;99.90;;;;;;4966515;28;19913;-78
2023/01/01 13:31:37;;;;;;;;;;;15.90;99.90;;;;;;4963869;28;20000;-81
2023/01/01 13:34:22;;;;;;;;;;;14.30;99.90;;;;;;4973129;28;20620;-76
2023/01/01 13:36:47;;;;;;;;;;;14.30;99.90;;;;;;4971510;28;20545;-79
2023/01/01 13:39:33;;;;;;;;;;;14.40;99.90;;;;;;4971365;28;19963;-76
2023/01/01 13:41:59;;;;;;;;;;;14.40;99.90;;;;;;4990191;28;19924;-87
2023/01/01 13:44:24;;;;;;;;;;;14.30;99.90;;;;;;4991215;28;20549;-77
2023/01/01 13:47:19;;;;;;;;;;;14.30;99.90;;;;;;4989904;28;20067;-74
2023/01/01 13:49:48;;;;;;;;;;;14.20;99.90;;;;;;4964462;28;19917;-77
2023/01/01 13:52:40;;;;;;;;;;;14.20;99.90;;;;;;4951700;28;19917;-78
2023/01/01 13:55:28;;;;;;;;;;;14.20;99.90;;;;;;4911098;29;20067;-78
2023/01/01 13:57:54;;;;;;;;;;;14.20;99.90;;;;;;4906509;29;19983;-77
2023/01/01 14:00:22;;;;;;;;;;;14.30;99.90;;;;;;4906839;29;20010;-78
2023/01/01 14:02:57;;;;;;;;;;;14.30;99.90;;;;;;4903780;29;19923;-77
2023/01/01 14:05:32;;;;;;;;;;;14.30;99.90;;;;;;4903855;29;19907;-79
2023/01/01 14:07:58;;;;;;;;;;;14.00;99.90;;;;;;4904192;29;19903;-79
2023/01/01 14:10:26;;;;;;;;;;;14.30;99.90;;;;;;4902964;29;19907;-79
2023/01/01 14:12:52;;;;;;;;;;;14.30;99.90;;;;;;4902573;29;19903;-78
2023/01/01 14:15:23;;;;;;;;;;;14.20;99.90;;;;;;4903473;29;19911;-83
2023/01/01 14:17:49;;;;;;;;;;;14.20;99.90;;;;;;4901931;29;19907;-82
2023/01/01 14:20:17;;;;;;;;;;;14.20;99.90;;;;;;4901979;29;19907;-81
2023/01/01 14:22:44;;;;;;;;;;;14.10;99.90;;;;;;4901826;29;19966;-79
2023/01/01 14:25:19;;;;;;;;;;;14.20;99.90;;;;;;4903384;28;19903;-78
2023/01/01 14:27:44;;;;;;;;;;;15.70;99.90;;;;;;4920324;29;19906;-81
2023/01/01 14:30:17;;;;;;;;;;;14.20;99.90;;;;;;4920399;29;19910;-77
2023/01/01 14:32:43;;;;;;;;;;;14.10;99.90;;;;;;4969736;28;20005;-75
2023/01/01 14:35:13;;;;;;;;;;;14.10;99.90;;;;;;4993571;28;19906;-78
2023/01/01 14:37:39;;;;;;;;;;;14.00;99.90;;;;;;4994631;28;20683;-78
2023/01/01 14:40:05;;;;;;;;;;;13.80;99.90;;;;;;4968966;28;19985;-79
2023/01/01 14:42:31;;;;;;;;;;;11.50;99.90;;;;;;5002758;28;19917;-77
2023/01/01 14:44:57;;;;;;;;;;;13.30;99.90;;;;;;4973864;28;19905;-77
2023/01/01 14:47:24;;;;;;;;;;;13.00;99.90;;;;;;4990557;28;19948;-75
2023/01/01 14:49:50;;;;;;;;;;;12.80;99.90;;;;;;4992697;28;19952;-78
2023/01/01 14:52:21;;;;;;;;;;;12.50;99.90;;;;;;5011522;28;19913;-75
2023/01/01 14:54:47;;;;;;;;;;;12.40;99.90;;;;;;5014029;28;19967;-78
2023/01/01 14:57:15;;;;;;;;;;;12.30;99.90;;;;;;5016635;28;19962;-77
2023/01/01 14:59:45;;;;;;;;;;;12.00;99.90;;;;;;5040351;28;19913;-78